METAR Data
IDs: Format: Raw Decoded Include TAF

Data at: 0159 UTC 24 Sep 2018

KHQU 240155Z AUTO 20004KT 10SM CLR 24/20 A3012 RMK AO2 T02450197
KHQU 240135Z AUTO 19004KT 10SM CLR 25/19 A3012 RMK AO2 T02490186
KHQU 240115Z AUTO 19003KT 10SM CLR 25/17 A3011 RMK AO2 T02500175
KHQU 240055Z AUTO 18004KT 10SM CLR 23/18 A3010 RMK AO2 T02330183
KHQU 240035Z AUTO 15005KT 10SM CLR 24/18 A3010 RMK AO2 T02420176
KHQU 240015Z AUTO 15005KT 10SM CLR 25/17 A3010 RMK AO2 T02500173
KHQU 232355Z AUTO 14003KT 10SM CLR 26/17 A3009 RMK AO2 T02640172 10319 20262 403190176
KHQU 232335Z AUTO 13003KT 10SM SCT070 27/17 A3009 RMK AO2 T02720167
KHQU 232315Z AUTO 16005KT 10SM SCT070 28/16 A3009 RMK AO2 T02790164
KHQU 232255Z AUTO 16005KT 10SM SCT070 29/16 A3008 RMK AO2 T02910162
KHQU 232235Z AUTO 16005KT 10SM SCT070 29/16 A3008 RMK AO2 T02930161
KHQU 232215Z AUTO 16003KT 10SM SCT070 30/16 A3007 RMK AO2 T03040160
KHQU 232155Z AUTO 16006KT 10SM SCT070 31/16 A3007 RMK AO2 T03060160
KHQU 232135Z AUTO 16004KT 10SM SCT070 30/16 A3007 RMK AO2 T03030159
KHQU 232115Z AUTO 23004KT 10SM SCT070 31/16 A3006 RMK AO2 T03140158
KHQU 232055Z AUTO 17005KT 10SM CLR 31/16 A3006 RMK AO2 T03120157
KHQU 232035Z AUTO 16004KT 10SM SCT065 31/16 A3007 RMK AO2 T03120160
KHQU 232015Z AUTO 00000KT 10SM CLR 31/16 A3007 RMK AO2 T03080159
KHQU 231955Z AUTO 18007KT 10SM SCT060 32/16 A3008 RMK AO2 T03170159
KHQU 231935Z AUTO 12007KT 10SM SCT060 31/16 A3008 RMK AO2 T03120162
KHQU 231915Z AUTO 15007KT 130V250 10SM SCT060 31/16 A3009 RMK AO2 T03110165
KHQU 231855Z AUTO 17003KT 10SM CLR 31/17 A3010 RMK AO2 T03090166
KHQU 231835Z AUTO 19007KT 130V220 10SM CLR 31/18 A3011 RMK AO2 T03130176
KHQU 231815Z AUTO 14007KT 10SM SCT050 SCT065 30/17 A3012 RMK AO2 T03020168
KHQU 231755Z AUTO 14003KT 10SM BKN050 BKN065 30/17 A3013 RMK AO2 T02990174 10306 20182
KHQU 231735Z AUTO 13006KT 10SM SCT050 SCT065 30/18 A3013 RMK AO2 T03020176
KHQU 231715Z AUTO 18005KT 10SM SCT047 SCT055 30/18 A3014 RMK AO2 T03010175
KHQU 231655Z AUTO 15007KT 120V180 10SM BKN047 30/18 A3014 RMK AO2 T03030180
KHQU 231635Z AUTO 16006KT 10SM BKN043 BKN055 30/18 A3015 RMK AO2 T02980184
KHQU 231615Z AUTO 17004KT 10SM SCT041 29/19 A3015 RMK AO2 T02900186
KHQU 231555Z AUTO 12007KT 10SM SCT039 29/19 A3015 RMK AO2 T02890188
KHQU 231535Z AUTO 16006KT 10SM SCT035 29/19 A3015 RMK AO2 T02860189
KHQU 231515Z AUTO 14006KT 10SM CLR 28/20 A3016 RMK AO2 T02820197
KHQU 231455Z AUTO 13006KT 10SM CLR 27/20 A3016 RMK AO2 T02730198
KHQU 231435Z AUTO 13004KT 10SM CLR 27/20 A3016 RMK AO2 T02660200
KHQU 231415Z AUTO 00000KT 10SM CLR 26/21 A3016 RMK AO2 T02570206
KHQU 231355Z AUTO 00000KT 10SM CLR 25/21 A3016 RMK AO2 T02520208
KHQU 231335Z AUTO 00000KT 10SM CLR 24/21 A3015 RMK AO2 T02420206
KHQU 231315Z AUTO 12003KT 10SM CLR 23/20 A3015 RMK AO2 T02320200
KHQU 231255Z AUTO 00000KT 10SM CLR 22/19 A3015 RMK AO2 T02180192
KHQU 231235Z AUTO 00000KT 10SM CLR 20/19 A3014 RMK AO2 T02010185
KHQU 231215Z AUTO 00000KT 10SM CLR 19/18 A3014 RMK AO2 T01900176
KHQU 231155Z AUTO 00000KT 10SM CLR 18/17 A3013 RMK AO2 T01820174 10208 20176
KHQU 231135Z AUTO 00000KT 10SM CLR 18/17 A3013 RMK AO2 T01780171
KHQU 231115Z AUTO 00000KT 10SM CLR 18/17 A3012 RMK AO2 T01770170
KHQU 231055Z AUTO 00000KT 10SM CLR 18/17 A3012 RMK AO2 T01790171
KHQU 231035Z AUTO 00000KT 10SM CLR 18/17 A3012 RMK AO2 T01800173
KHQU 231015Z AUTO 00000KT 10SM CLR 18/17 A3011 RMK AO2 T01810174
KHQU 230955Z AUTO 00000KT 10SM CLR 18/17 A3011 RMK AO2 T01810174
KHQU 230935Z AUTO 00000KT 10SM CLR 18/18 A3011 RMK AO2 T01840176
KHQU 230915Z AUTO 10SM CLR 18/18 A3011 RMK AO2 T01840176
KHQU 230850Z AUTO 00000KT 10SM CLR 19/18 A3011 RMK AO2 T01890179
KHQU 230835Z AUTO 00000KT 10SM CLR 19/18 A3011 RMK AO2 T01910180
KHQU 230815Z AUTO 00000KT 10SM CLR 19/18 A3011 RMK AO2 T01880180
KHQU 230755Z AUTO 00000KT 10SM CLR 19/18 A3011 RMK AO2 T01920183
KHQU 230735Z AUTO 00000KT 10SM CLR 19/18 A3011 RMK AO2 T01920182
KHQU 230715Z AUTO 00000KT 10SM CLR 19/18 A3011 RMK AO2 T01930183
KHQU 230655Z AUTO 00000KT 10SM CLR 20/18 A3012 RMK AO2 T02020183
KHQU 230635Z AUTO 00000KT 10SM CLR 20/19 A3012 RMK AO2 T01990186
KHQU 230615Z AUTO 00000KT 10SM CLR 21/19 A3012 RMK AO2 T02080187
KHQU 230555Z AUTO 21003KT 10SM CLR 20/19 A3012 RMK AO2 T02030187 10260 20203
KHQU 230535Z AUTO 00000KT 10SM CLR 21/19 A3013 RMK AO2 T02060188
KHQU 230515Z AUTO 00000KT 10SM CLR 21/19 A3013 RMK AO2 T02110189
KHQU 230455Z AUTO 00000KT 10SM CLR 22/19 A3013 RMK AO2 T02200188
KHQU 230435Z AUTO 23004KT 10SM CLR 23/19 A3014 RMK AO2 T02300187
KHQU 230415Z AUTO 23004KT 10SM CLR 23/19 A3014 RMK AO2 T02300187
KHQU 230355Z AUTO 22005KT 10SM CLR 22/19 A3014 RMK AO2 T02180192
KHQU 230335Z AUTO 00000KT 10SM CLR 22/19 A3014 RMK AO2 T02150192
KHQU 230315Z AUTO 00000KT 10SM CLR 22/19 A3013 RMK AO2 T02160194
KHQU 230255Z AUTO 00000KT 10SM CLR 22/19 A3013 RMK AO2 T02210193
KHQU 230235Z AUTO 00000KT 10SM CLR 23/19 A3013 RMK AO2 T02270193
KHQU 230215Z AUTO 00000KT 10SM CLR 23/19 A3013 RMK AO2 T02320192
KHQU 230155Z AUTO 19003KT 10SM CLR 23/20 A3012 RMK AO2 T02320196
KHQU 230135Z AUTO 00000KT 10SM CLR 23/20 A3012 RMK AO2 T02320197
KHQU 230115Z AUTO 19003KT 10SM CLR 24/20 A3011 RMK AO2 T02360197
KHQU 230055Z AUTO 00000KT 10SM CLR 24/19 A3010 RMK AO2 T02420188
KHQU 230035Z AUTO 00000KT 10SM CLR 25/19 A3010 RMK AO2 T02490190
KHQU 230015Z AUTO 19003KT 10SM CLR 25/19 A3009 RMK AO2 T02520191
KHQU 222355Z AUTO 19003KT 10SM CLR 26/19 A3008 RMK AO2 T02620190 10323 20260 403230185
KHQU 222335Z AUTO 00000KT 10SM CLR 28/18 A3008 RMK AO2 T02780185
KHQU 222315Z AUTO 18003KT 10SM CLR 29/18 A3008 RMK AO2 T02860182
KHQU 222255Z AUTO 18004KT 10SM CLR 30/18 A3007 RMK AO2 T02960179
KHQU 222235Z AUTO 16005KT 10SM CLR 31/17 A3007 RMK AO2 T03050174
KHQU 222215Z AUTO 17003KT 10SM CLR 31/18 A3006 RMK AO2 T03070178
KHQU 222155Z AUTO 16007KT 10SM CLR 31/18 A3007 RMK AO2 T03120176
KHQU 222135Z AUTO 16006KT 10SM CLR 32/18 A3008 RMK AO2 T03160178
KHQU 222115Z AUTO 16004KT 10SM CLR 31/19 A3008 RMK AO2 T03120185
KHQU 222055Z AUTO 14009KT 10SM SCT095 32/18 A3008 RMK AO2 T03180184
KHQU 222035Z AUTO 12007KT 090V150 10SM SCT065 32/18 A3009 RMK AO2 T03150183
KHQU 222015Z AUTO 14006KT 10SM SCT055 BKN070 BKN090 30/18 A3009 RMK AO2 T03030183
KHQU 221955Z AUTO 17005KT 10SM SCT055 SCT090 31/18 A3010 RMK AO2 T03110180
KHQU 221935Z AUTO 18004KT 10SM SCT055 SCT100 32/18 A3010 RMK AO2 T03210180
KHQU 221915Z AUTO 20005KT 10SM SCT055 31/18 A3011 RMK AO2 T03140179
KHQU 221855Z AUTO 19004KT 10SM CLR 32/18 A3012 RMK AO2 T03190178
KHQU 221835Z AUTO 27005KT 10SM SCT050 31/18 A3013 RMK AO2 T03080183
KHQU 221815Z AUTO 22004KT 10SM CLR 31/18 A3014 RMK AO2 T03140182
KHQU 221755Z AUTO 00000KT 10SM SCT049 31/18 A3015 RMK AO2 T03080182 10312 20189
KHQU 221735Z AUTO 13004KT 10SM SCT049 31/18 A3015 RMK AO2 T03050184
KHQU 221715Z AUTO 17004KT 10SM CLR 30/19 A3016 RMK AO2 T03020187
KHQU 221655Z AUTO 18005KT 10SM CLR 30/18 A3017 RMK AO2 T02970181
KHQU 221635Z AUTO 19004KT 10SM CLR 29/18 A3018 RMK AO2 T02940184
KHQU 221615Z AUTO 00000KT 10SM CLR 30/18 A3018 RMK AO2 T02990176
KHQU 221555Z AUTO 09003KT 10SM CLR 29/18 A3019 RMK AO2 T02860182
KHQU 221535Z AUTO 00000KT 10SM CLR 28/18 A3019 RMK AO2 T02820182
KHQU 221515Z AUTO 23004KT 10SM CLR 28/18 A3019 RMK AO2 T02780181
KHQU 221455Z AUTO 00000KT 10SM CLR 27/19 A3020 RMK AO2 T02750186
KHQU 221435Z AUTO 03004KT 10SM CLR 27/20 A3020 RMK AO2 T02660195
KHQU 221415Z AUTO 00000KT 10SM CLR 26/21 A3020 RMK AO2 T02550208